Terminal Aerodrome Forecast
Issued by NWS

Current Version | Previous Version | Text Only | Print | Product List | Glossary Off
Versions: 1 2 3 4 5 6 7 8 9 10 11 12 13 14 15 16 17

000
FTUS41 KPBZ 231500 AAB
TAFMGW
TAF AMD
KMGW 231500Z 2315/2412 30008G16KT P6SM OVC028
     FM231900 31010G18KT P6SM BKN035
     FM240000 32006KT P6SM SKC=

USA.gov is the U.S. government's official web portal to all federal, state and local government web resources and services.